createdAt,value
2018-06-29T04:31:12.009Z,30
2018-06-29T04:32:12.240Z,30
2018-06-29T04:33:12.179Z,30
2018-06-29T04:34:12.410Z,30
2018-06-29T04:35:12.130Z,35
2018-06-29T04:36:12.114Z,35
2018-06-29T04:37:12.109Z,35
2018-06-29T04:38:26.450Z,35
2018-06-29T04:39:11.502Z,35
2018-06-29T04:40:12.061Z,35
2018-06-29T04:41:12.291Z,35
2018-06-29T04:42:11.781Z,35
2018-06-29T04:43:11.759Z,35
2018-06-29T04:44:11.476Z,35
2018-06-29T04:45:12.258Z,35
2018-06-29T04:46:11.704Z,35
2018-06-29T04:47:11.993Z,35
2018-06-29T04:48:12.228Z,35
2018-06-29T04:49:11.455Z,35
2018-06-29T04:50:11.923Z,35
2018-06-29T04:51:11.116Z,35
2018-06-29T04:52:11.917Z,35
2018-06-29T04:53:11.651Z,35
2018-06-29T04:54:11.609Z,40
2018-06-29T04:55:11.872Z,40
2018-06-29T04:56:11.606Z,40
2018-06-29T04:57:11.858Z,40
2018-06-29T04:58:11.834Z,40
2018-06-29T04:59:11.894Z,40
2018-06-29T05:00:11.310Z,40
2018-06-29T05:01:11.689Z,40
2018-06-29T05:02:26.174Z,40
2018-06-29T05:03:11.500Z,40
2018-06-29T05:04:11.497Z,40
2018-06-29T05:05:11.231Z,40
2018-06-29T05:06:11.721Z,40
2018-06-29T05:07:12.194Z,40
2018-06-29T05:08:11.743Z,40
2018-06-29T05:09:11.841Z,40
2018-06-29T05:10:11.419Z,40
2018-06-29T05:11:11.400Z,40
2018-06-29T05:12:11.654Z,40
2018-06-29T05:13:11.099Z,40
2018-06-29T05:14:11.103Z,45
2018-06-29T05:15:11.355Z,45
2018-06-29T05:16:11.092Z,45
2018-06-29T05:17:10.807Z,45
2018-06-29T05:18:11.602Z,45
2018-06-29T05:19:11.562Z,45
2018-06-29T05:20:11.883Z,45
2018-06-29T05:21:11.555Z,45
2018-06-29T05:22:10.740Z,45
2018-06-29T05:23:11.521Z,45
2018-06-29T05:24:11.235Z,45
2018-06-29T05:25:11.504Z,45
2018-06-29T05:26:11.230Z,45
2018-06-29T05:27:11.479Z,45
2018-06-29T05:28:11.466Z,45
2018-06-29T05:29:11.454Z,45
2018-06-29T05:30:11.176Z,45
2018-06-29T05:31:11.468Z,45
2018-06-29T05:32:11.410Z,45
2018-06-29T05:33:11.332Z,45
2018-06-29T05:34:10.591Z,50
2018-06-29T05:35:11.378Z,50
2018-06-29T05:36:11.406Z,50
2018-06-29T05:37:11.633Z,50
2018-06-29T05:38:11.076Z,50
2018-06-29T05:39:11.058Z,50
2018-06-29T05:40:11.327Z,50
2018-06-29T05:41:11.054Z,50
2018-06-29T05:42:11.303Z,50
2018-06-29T05:43:11.553Z,50
2018-06-29T05:44:11.006Z,50
2018-06-29T05:45:10.986Z,50
2018-06-29T05:46:11.356Z,50
2018-06-29T05:47:10.448Z,50
2018-06-29T05:48:10.951Z,50
2018-06-29T05:49:11.055Z,50
2018-06-29T05:50:10.670Z,50
2018-06-29T05:51:10.660Z,50
2018-06-29T05:52:11.178Z,50
2018-06-29T05:53:10.751Z,50
2018-06-29T05:54:10.887Z,50
2018-06-29T05:55:10.632Z,55
2018-06-29T05:56:11.145Z,55
2018-06-29T05:57:11.384Z,55
2018-06-29T05:58:10.841Z,55
2018-06-29T05:59:11.379Z,55
2018-06-29T06:00:11.084Z,55
2018-06-29T06:01:11.077Z,55
2018-06-29T06:02:11.474Z,55
2018-06-29T06:03:10.570Z,55
2018-06-29T06:04:11.081Z,55
2018-06-29T06:05:10.511Z,55
2018-06-29T06:06:11.288Z,55
2018-06-29T06:07:10.764Z,55
2018-06-29T06:08:10.726Z,55
2018-06-29T06:09:11.010Z,55
2018-06-29T06:10:10.545Z,55
2018-06-29T06:11:10.701Z,55
2018-06-29T06:12:10.415Z,55
2018-06-29T06:13:10.722Z,55
2018-06-29T06:14:10.660Z,55
2018-06-29T06:15:10.957Z,55
2018-06-29T06:16:10.880Z,55
2018-06-29T06:17:11.197Z,70
2018-06-29T06:18:10.381Z,230
2018-06-29T06:19:10.890Z,195
2018-06-29T06:20:10.337Z,65
2018-06-29T06:21:10.319Z,225
2018-06-29T06:22:10.441Z,590
2018-06-29T06:23:10.835Z,820
2018-06-29T06:24:10.816Z,895
2018-06-29T06:25:10.819Z,905
2018-06-29T06:26:10.811Z,495
2018-06-29T06:27:10.542Z,130
2018-06-29T06:28:10.512Z,60
2018-06-29T06:29:10.785Z,55
2018-06-29T06:30:10.471Z,55
2018-06-29T06:31:10.481Z,55
2018-06-29T06:32:10.741Z,55
2018-06-29T06:33:10.581Z,55
2018-06-29T06:34:10.743Z,55
2018-06-29T06:35:10.800Z,55
2018-06-29T06:36:10.431Z,55
2018-06-29T06:37:10.163Z,55
2018-06-29T06:38:10.682Z,60
2018-06-29T06:39:10.415Z,60
2018-06-29T06:40:10.684Z,60
2018-06-29T06:41:10.402Z,60
2018-06-29T06:42:10.657Z,60
2018-06-29T06:43:10.635Z,60
2018-06-29T06:44:10.370Z,60
2018-06-29T06:45:10.610Z,60
2018-06-29T06:46:10.598Z,60
2018-06-29T06:47:10.443Z,60
2018-06-29T06:48:10.593Z,115
2018-06-29T06:49:10.578Z,530
2018-06-29T06:50:10.050Z,1045
2018-06-29T06:51:10.834Z,1095
2018-06-29T06:52:10.289Z,1050
2018-06-29T06:53:10.541Z,990
2018-06-29T06:54:10.292Z,965
2018-06-29T06:55:10.524Z,810
2018-06-29T06:56:10.260Z,480
2018-06-29T06:57:10.233Z,185
2018-06-29T06:58:10.498Z,85
2018-06-29T06:59:09.956Z,75
2018-06-29T07:00:10.219Z,75
2018-06-29T07:01:10.738Z,75
2018-06-29T07:02:10.462Z,70
2018-06-29T07:03:10.447Z,75
2018-06-29T07:04:10.187Z,75
2018-06-29T07:05:10.438Z,75
2018-06-29T07:06:10.429Z,75
2018-06-29T07:07:10.160Z,75
2018-06-29T07:08:10.175Z,75
2018-06-29T07:09:10.141Z,75
2018-06-29T07:10:10.394Z,80
2018-06-29T07:11:10.121Z,80
2018-06-29T07:12:10.375Z,80
2018-06-29T07:13:09.882Z,85
2018-06-29T07:14:10.099Z,175
2018-06-29T07:15:09.829Z,440
2018-06-29T07:16:10.344Z,775
2018-06-29T07:17:10.070Z,1055
2018-06-29T07:18:10.086Z,1165
2018-06-29T07:19:09.833Z,1215
2018-06-29T07:20:10.335Z,1245
2018-06-29T07:21:10.041Z,1300
2018-06-29T07:22:10.581Z,1380
2018-06-29T07:23:09.769Z,1435
2018-06-29T07:24:10.029Z,1440
2018-06-29T07:25:10.027Z,1340
2018-06-29T07:26:10.017Z,1235
2018-06-29T07:27:09.755Z,1235
2018-06-29T07:28:09.744Z,1320
2018-06-29T07:29:09.754Z,1395
2018-06-29T07:30:10.529Z,1390
2018-06-29T07:31:10.259Z,1400
2018-06-29T07:32:10.275Z,1410
2018-06-29T07:33:10.664Z,1440
2018-06-29T07:34:10.248Z,1470
2018-06-29T07:35:09.983Z,1500
2018-06-29T07:36:09.987Z,1515
2018-06-29T07:37:09.975Z,1490
2018-06-29T07:38:10.232Z,1430
2018-06-29T07:39:09.713Z,1375
2018-06-29T07:40:09.440Z,1395
2018-06-29T07:41:09.714Z,1420
2018-06-29T07:42:09.703Z,1430
2018-06-29T07:43:10.241Z,1470
2018-06-29T07:44:09.961Z,1475
2018-06-29T07:45:09.965Z,1450
2018-06-29T07:46:09.961Z,1445
2018-06-29T07:47:10.258Z,1450
2018-06-29T07:48:09.436Z,1470
2018-06-29T07:49:09.966Z,1535
2018-06-29T07:50:10.233Z,1560
2018-06-29T07:51:09.960Z,1585
2018-06-29T07:52:09.962Z,1585
2018-06-29T07:53:10.503Z,1560
2018-06-29T07:54:09.972Z,1560
2018-06-29T07:55:09.705Z,1590
2018-06-29T07:56:10.287Z,1570
2018-06-29T07:57:09.988Z,1545
2018-06-29T07:58:10.551Z,1555
2018-06-29T07:59:10.508Z,1560
2018-06-29T08:00:10.239Z,1545
2018-06-29T08:01:09.449Z,1565
2018-06-29T08:02:09.987Z,1560
2018-06-29T08:03:10.258Z,1595
2018-06-29T08:04:10.160Z,1650
2018-06-29T08:05:09.761Z,1685
2018-06-29T08:06:10.256Z,1700
2018-06-29T08:07:09.988Z,1730
2018-06-29T08:08:10.002Z,1700
2018-06-29T08:09:10.010Z,1650
2018-06-29T08:10:10.553Z,1605
2018-06-29T08:11:09.747Z,1615
2018-06-29T08:12:10.270Z,1660
2018-06-29T08:13:10.006Z,1665
2018-06-29T08:14:10.002Z,1675
2018-06-29T08:15:10.277Z,1670
2018-06-29T08:16:10.537Z,1660
2018-06-29T08:17:10.554Z,1655
2018-06-29T08:18:10.290Z,1660
2018-06-29T08:19:10.543Z,1660
2018-06-29T08:20:10.292Z,1695
2018-06-29T08:21:10.032Z,1720
2018-06-29T08:22:10.297Z,1705
2018-06-29T08:23:10.308Z,1710
2018-06-29T08:24:10.036Z,1700
2018-06-29T08:25:10.582Z,1690
2018-06-29T08:26:10.312Z,1705
2018-06-29T08:27:10.062Z,1745
2018-06-29T08:28:10.059Z,1735
2018-06-29T08:29:10.377Z,1690
2018-06-29T08:30:10.362Z,1630
2018-06-29T08:31:09.806Z,1450
2018-06-29T08:32:10.077Z,1015
2018-06-29T08:33:10.355Z,405
2018-06-29T08:34:10.085Z,585
2018-06-29T08:35:10.097Z,640
2018-06-29T08:36:10.081Z,500
2018-06-29T08:37:10.088Z,485
2018-06-29T08:38:10.359Z,375
2018-06-29T08:39:10.102Z,1465
2018-06-29T08:40:10.174Z,555
2018-06-29T08:41:10.107Z,550
2018-06-29T08:42:10.113Z,135
2018-06-29T08:43:10.110Z,170
2018-06-29T08:44:10.472Z,105
2018-06-29T08:45:10.109Z,180
2018-06-29T08:46:10.371Z,150
2018-06-29T08:47:10.430Z,565
2018-06-29T08:48:10.365Z,110
2018-06-29T08:49:09.843Z,255
2018-06-29T08:50:10.147Z,100
2018-06-29T08:51:10.381Z,400
2018-06-29T08:52:09.900Z,1065
2018-06-29T08:53:10.368Z,840
2018-06-29T08:54:10.107Z,1145
2018-06-29T08:55:10.668Z,145
2018-06-29T08:56:10.107Z,110
2018-06-29T08:57:10.377Z,1305
2018-06-29T08:58:09.841Z,330
2018-06-29T08:59:10.102Z,1505
2018-06-29T09:00:10.168Z,340
2018-06-29T09:01:10.126Z,1940
2018-06-29T09:02:10.367Z,2000
2018-06-29T09:03:10.109Z,2010
2018-06-29T09:04:10.102Z,1955
2018-06-29T09:05:10.634Z,1865
2018-06-29T09:06:10.676Z,1800
2018-06-29T09:07:09.890Z,1785
2018-06-29T09:08:10.663Z,1820
2018-06-29T09:09:09.895Z,1880
2018-06-29T09:10:10.124Z,1890
2018-06-29T09:11:10.545Z,1910
2018-06-29T09:12:10.388Z,1960
2018-06-29T09:13:09.862Z,2020
2018-06-29T09:14:10.437Z,2055
2018-06-29T09:15:10.438Z,2070
2018-06-29T09:16:09.894Z,1855
2018-06-29T09:17:10.153Z,1245
2018-06-29T09:18:10.425Z,770
2018-06-29T09:19:09.947Z,585
2018-06-29T09:20:10.415Z,610
2018-06-29T09:21:10.156Z,550
2018-06-29T09:22:10.425Z,795
2018-06-29T09:23:10.421Z,1000
2018-06-29T09:24:09.638Z,1370
2018-06-29T09:25:10.170Z,745
2018-06-29T09:26:10.429Z,665
2018-06-29T09:27:10.497Z,660
2018-06-29T09:28:10.437Z,840
2018-06-29T09:29:09.918Z,840
2018-06-29T09:30:11.114Z,935
2018-06-29T09:31:10.199Z,1550
2018-06-29T09:32:10.199Z,1880
2018-06-29T09:33:11.794Z,1820
2018-06-29T09:34:10.235Z,1690
2018-06-29T09:35:10.452Z,1800
2018-06-29T09:36:10.188Z,1275
2018-06-29T09:37:09.936Z,1940
2018-06-29T09:38:10.204Z,1995
2018-06-29T09:39:10.210Z,2020
2018-06-29T09:40:09.680Z,2045
2018-06-29T09:41:25.352Z,2035
2018-06-29T09:42:10.291Z,2060
2018-06-29T09:43:10.225Z,2075
2018-06-29T09:44:10.262Z,2050
2018-06-29T09:45:10.487Z,590
2018-06-29T09:46:09.975Z,510
2018-06-29T09:47:10.498Z,1360
2018-06-29T09:48:10.216Z,1115
2018-06-29T09:49:10.504Z,970
2018-06-29T09:50:10.504Z,350
2018-06-29T09:51:10.772Z,650
2018-06-29T09:52:10.518Z,350
2018-06-29T09:53:10.257Z,595
2018-06-29T09:54:10.788Z,165
2018-06-29T09:55:10.257Z,145
2018-06-29T09:56:10.521Z,200
2018-06-29T09:57:10.525Z,215
2018-06-29T09:58:10.540Z,170
2018-06-29T09:59:09.745Z,205
2018-06-29T10:00:10.022Z,145
2018-06-29T10:01:10.574Z,180
2018-06-29T10:02:10.005Z,330
2018-06-29T10:03:10.273Z,165
2018-06-29T10:04:09.999Z,140
2018-06-29T10:05:10.002Z,240
2018-06-29T10:06:10.540Z,175
2018-06-29T10:07:10.277Z,900
2018-06-29T10:08:10.536Z,470
2018-06-29T10:09:10.276Z,500
2018-06-29T10:10:10.009Z,290
2018-06-29T10:11:10.284Z,1410
2018-06-29T10:12:10.819Z,285
2018-06-29T10:13:10.011Z,490
2018-06-29T10:14:11.198Z,750
2018-06-29T10:15:10.545Z,290
2018-06-29T10:16:10.272Z,415
2018-06-29T10:17:10.805Z,635
2018-06-29T10:18:10.799Z,480
2018-06-29T10:19:10.523Z,325
2018-06-29T10:20:10.322Z,2105
2018-06-29T10:21:10.526Z,780
2018-06-29T10:22:10.685Z,1660
2018-06-29T10:23:10.530Z,840
2018-06-29T10:24:10.314Z,2090
2018-06-29T10:25:10.401Z,2020
2018-06-29T10:26:09.732Z,2330
2018-06-29T10:27:09.999Z,2350
2018-06-29T10:28:11.070Z,2390
2018-06-29T10:29:10.528Z,2375
2018-06-29T10:30:10.532Z,2435
2018-06-29T10:31:10.536Z,2515
2018-06-29T10:32:10.285Z,2515
2018-06-29T10:33:10.544Z,2405
2018-06-29T10:34:10.489Z,2295
2018-06-29T10:35:10.278Z,2240
2018-06-29T10:36:10.521Z,2235
2018-06-29T10:37:10.561Z,2235
2018-06-29T10:38:10.574Z,2175
2018-06-29T10:39:10.050Z,2120
2018-06-29T10:40:10.304Z,2150
2018-06-29T10:41:10.584Z,2210
2018-06-29T10:42:10.588Z,2275
2018-06-29T10:43:10.844Z,2300
2018-06-29T10:44:10.337Z,2300
2018-06-29T10:45:10.946Z,2290
2018-06-29T10:46:10.606Z,2275
2018-06-29T10:47:10.133Z,2260
2018-06-29T10:48:10.879Z,2270
2018-06-29T10:49:10.885Z,2290
2018-06-29T10:50:10.387Z,2260
2018-06-29T10:51:10.635Z,2245
2018-06-29T10:52:10.382Z,2240
2018-06-29T10:53:10.655Z,2195
2018-06-29T10:54:10.404Z,2200
2018-06-29T10:55:10.944Z,2205
2018-06-29T10:56:10.683Z,2200
2018-06-29T10:57:10.704Z,2265
2018-06-29T10:58:10.424Z,2290
2018-06-29T10:59:10.437Z,2330
2018-06-29T11:00:10.709Z,2330
2018-06-29T11:01:10.451Z,2305
2018-06-29T11:02:10.720Z,2300
2018-06-29T11:03:10.777Z,2320
2018-06-29T11:04:10.463Z,2335
2018-06-29T11:05:10.482Z,2290
2018-06-29T11:06:11.021Z,2235
2018-06-29T11:07:10.770Z,2185
2018-06-29T11:08:10.779Z,2145
2018-06-29T11:09:10.249Z,2165
2018-06-29T11:10:10.523Z,2210
2018-06-29T11:11:11.182Z,2265
2018-06-29T11:12:10.904Z,2300
2018-06-29T11:13:10.545Z,2315
2018-06-29T11:14:10.546Z,2335
2018-06-29T11:15:10.858Z,2325
2018-06-29T11:16:10.567Z,2320
2018-06-29T11:17:10.605Z,2285
2018-06-29T11:18:11.150Z,2275
2018-06-29T11:19:10.604Z,2240
2018-06-29T11:20:10.616Z,2185
2018-06-29T11:21:10.615Z,2130
2018-06-29T11:22:10.620Z,2125
2018-06-29T11:23:10.905Z,2165
2018-06-29T11:24:10.378Z,2210
2018-06-29T11:25:10.926Z,2255
2018-06-29T11:26:10.665Z,2290
2018-06-29T11:27:10.668Z,2270
2018-06-29T11:28:10.941Z,2255
2018-06-29T11:29:11.226Z,2170
2018-06-29T11:30:10.701Z,2175
2018-06-29T11:31:10.703Z,2265
2018-06-29T11:32:10.450Z,2290
2018-06-29T11:33:10.736Z,2370
2018-06-29T11:34:10.964Z,2425
2018-06-29T11:35:10.484Z,2340
2018-06-29T11:36:10.218Z,2245
2018-06-29T11:37:10.493Z,2200
2018-06-29T11:38:10.238Z,2195
2018-06-29T11:39:11.038Z,2245
2018-06-29T11:40:11.059Z,2310
2018-06-29T11:41:11.327Z,2350
2018-06-29T11:42:10.803Z,2280
2018-06-29T11:43:10.576Z,2170
2018-06-29T11:44:11.046Z,2120
2018-06-29T11:45:11.104Z,2080
2018-06-29T11:46:11.372Z,2125
2018-06-29T11:47:11.117Z,2235
2018-06-29T11:48:10.855Z,2270
2018-06-29T11:49:10.873Z,2290
2018-06-29T11:50:11.422Z,2300
2018-06-29T11:51:10.885Z,2300
2018-06-29T11:52:10.897Z,2300
2018-06-29T11:53:11.168Z,2260
2018-06-29T11:54:10.918Z,2185
2018-06-29T11:55:10.660Z,2115
2018-06-29T11:56:10.409Z,2035
2018-06-29T11:57:11.230Z,2050
2018-06-29T11:58:10.957Z,2085
2018-06-29T11:59:10.966Z,2100
2018-06-29T12:00:10.978Z,2120
2018-06-29T12:01:10.984Z,2065
2018-06-29T12:02:11.000Z,2030
2018-06-29T12:03:11.009Z,2090
2018-06-29T12:04:11.009Z,2140
2018-06-29T12:05:11.284Z,2125
2018-06-29T12:06:10.776Z,2125
2018-06-29T12:07:11.402Z,2095
2018-06-29T12:08:11.270Z,2045
2018-06-29T12:09:11.622Z,1965
2018-06-29T12:10:11.104Z,1920
2018-06-29T12:11:11.105Z,2000
2018-06-29T12:12:11.095Z,2065
2018-06-29T12:13:11.367Z,2115
2018-06-29T12:14:10.844Z,2150
2018-06-29T12:15:11.414Z,2070
2018-06-29T12:16:11.135Z,2045
2018-06-29T12:17:11.419Z,2070
2018-06-29T12:18:11.164Z,2070
2018-06-29T12:19:11.429Z,2070
2018-06-29T12:20:11.177Z,2150
2018-06-29T12:21:11.184Z,2225
2018-06-29T12:22:11.471Z,2275
2018-06-29T12:23:11.465Z,2290
2018-06-29T12:24:11.762Z,2255
2018-06-29T12:25:11.759Z,2235
2018-06-29T12:26:11.500Z,2220
2018-06-29T12:27:10.997Z,2165
2018-06-29T12:28:11.858Z,1745
2018-06-29T12:29:11.528Z,1640
2018-06-29T12:30:11.357Z,1735
2018-06-29T12:31:11.568Z,1775
2018-06-29T12:32:11.565Z,2175
2018-06-29T12:33:11.849Z,2245
2018-06-29T12:34:11.566Z,2210
2018-06-29T12:35:11.316Z,2140
2018-06-29T12:36:11.111Z,2055
2018-06-29T12:37:11.614Z,1980
2018-06-29T12:38:11.888Z,1835
2018-06-29T12:39:11.627Z,1995
2018-06-29T12:40:11.650Z,2055
2018-06-29T12:41:11.652Z,2090
2018-06-29T12:42:11.385Z,2065
2018-06-29T12:43:11.661Z,2050
2018-06-29T12:44:11.679Z,2015
2018-06-29T12:45:11.696Z,1935
2018-06-29T12:46:11.534Z,1845
2018-06-29T12:47:11.486Z,1775
2018-06-29T12:48:11.183Z,1765
2018-06-29T12:49:10.932Z,1830
2018-06-29T12:50:11.197Z,1895
2018-06-29T12:51:11.478Z,2015
2018-06-29T12:52:11.492Z,2020
2018-06-29T12:53:11.499Z,1985
2018-06-29T12:54:11.518Z,1945
2018-06-29T12:55:11.783Z,1945
2018-06-29T12:56:11.267Z,1990
2018-06-29T12:57:11.715Z,1970
2018-06-29T12:58:11.556Z,1955
2018-06-29T12:59:11.561Z,1940
2018-06-29T13:00:11.579Z,1985
2018-06-29T13:01:11.610Z,2010
2018-06-29T13:02:11.836Z,1985
2018-06-29T13:03:11.882Z,1945
2018-06-29T13:04:11.347Z,1880
2018-06-29T13:05:12.247Z,1890
2018-06-29T13:06:11.671Z,1930
2018-06-29T13:07:11.701Z,2000
2018-06-29T13:08:11.916Z,2030
2018-06-29T13:09:11.937Z,2045
2018-06-29T13:10:11.676Z,2060
2018-06-29T13:11:11.957Z,2080
2018-06-29T13:12:12.230Z,2060
2018-06-29T13:13:11.963Z,2010
2018-06-29T13:14:12.346Z,1985
2018-06-29T13:15:12.295Z,1975
2018-06-29T13:16:12.023Z,1975
2018-06-29T13:17:11.468Z,1975
2018-06-29T13:18:12.002Z,1965
2018-06-29T13:19:12.010Z,1985
2018-06-29T13:20:12.025Z,2050
2018-06-29T13:21:11.497Z,2035
2018-06-29T13:22:12.044Z,2005
2018-06-29T13:23:11.798Z,2010
2018-06-29T13:24:12.335Z,2035
2018-06-29T13:25:12.088Z,2055
2018-06-29T13:26:11.812Z,2090
2018-06-29T13:27:11.830Z,2065
2018-06-29T13:28:12.371Z,1975
2018-06-29T13:29:11.847Z,1900
2018-06-29T13:30:11.851Z,1875
2018-06-29T13:31:11.864Z,1870
2018-06-29T13:32:12.401Z,1940
2018-06-29T13:33:11.914Z,1975
2018-06-29T13:34:12.349Z,1985
2018-06-29T13:35:11.907Z,2020
2018-06-29T13:36:12.437Z,2015
2018-06-29T13:37:11.922Z,1950
2018-06-29T13:38:11.929Z,1860
2018-06-29T13:39:11.935Z,1895
2018-06-29T13:40:12.481Z,1900
2018-06-29T13:41:11.747Z,1930
2018-06-29T13:42:11.699Z,1950
2018-06-29T13:43:11.761Z,1850
2018-06-29T13:44:12.166Z,1670
2018-06-29T13:45:12.265Z,1445
2018-06-29T13:46:12.542Z,1375
2018-06-29T13:47:11.739Z,1525
2018-06-29T13:48:12.288Z,1740
2018-06-29T13:49:12.051Z,1885
2018-06-29T13:50:12.302Z,1885
2018-06-29T13:51:12.046Z,1790
2018-06-29T13:52:11.811Z,1750
2018-06-29T13:53:11.535Z,1760
2018-06-29T13:54:12.087Z,1805
2018-06-29T13:55:12.081Z,1825
2018-06-29T13:56:12.633Z,1810
2018-06-29T13:57:12.644Z,1720
2018-06-29T13:58:12.369Z,1670
2018-06-29T13:59:12.390Z,1675
2018-06-29T14:00:12.660Z,1690
2018-06-29T14:01:12.676Z,1720
2018-06-29T14:02:12.141Z,1670
2018-06-29T14:03:12.686Z,1630
2018-06-29T14:04:12.435Z,1590
2018-06-29T14:05:12.163Z,1585
2018-06-29T14:06:12.176Z,1590
2018-06-29T14:07:11.653Z,1600
2018-06-29T14:08:12.460Z,1665
2018-06-29T14:09:11.941Z,1735
2018-06-29T14:10:12.214Z,1755
2018-06-29T14:11:12.750Z,1750
2018-06-29T14:12:12.223Z,1730
2018-06-29T14:13:12.230Z,1660
2018-06-29T14:14:11.719Z,1595
2018-06-29T14:15:12.535Z,1555
2018-06-29T14:16:12.796Z,1575
2018-06-29T14:17:12.546Z,1630
2018-06-29T14:18:12.808Z,1685
2018-06-29T14:19:12.022Z,1765
2018-06-29T14:20:12.299Z,1790
2018-06-29T14:21:12.308Z,1710
2018-06-29T14:22:12.049Z,1660
2018-06-29T14:23:12.327Z,1620
2018-06-29T14:24:12.331Z,1645
2018-06-29T14:25:12.072Z,1705
2018-06-29T14:26:12.343Z,1710
2018-06-29T14:27:12.351Z,1635
2018-06-29T14:28:12.617Z,1560
2018-06-29T14:29:12.563Z,1520
2018-06-29T14:30:11.843Z,1470
2018-06-29T14:31:12.390Z,1395
2018-06-29T14:32:12.381Z,1360
2018-06-29T14:33:12.405Z,1385
2018-06-29T14:34:12.155Z,1470
2018-06-29T14:35:12.415Z,1585
2018-06-29T14:36:12.421Z,1685
2018-06-29T14:37:12.166Z,1685
2018-06-29T14:38:12.707Z,1605
2018-06-29T14:39:12.701Z,1555
2018-06-29T14:40:12.768Z,1570
2018-06-29T14:41:12.770Z,1595
2018-06-29T14:42:12.517Z,1575
2018-06-29T14:43:12.472Z,1540
2018-06-29T14:44:12.480Z,1535
2018-06-29T14:45:12.774Z,1530
2018-06-29T14:46:12.503Z,1535
2018-06-29T14:47:12.506Z,1520
2018-06-29T14:48:12.241Z,1500
2018-06-29T14:49:12.784Z,1470
2018-06-29T14:50:12.261Z,1430
2018-06-29T14:51:12.531Z,1420
2018-06-29T14:52:12.541Z,1415
2018-06-29T14:53:12.283Z,1420
2018-06-29T14:54:12.561Z,1410
2018-06-29T14:55:12.572Z,1430
2018-06-29T14:56:12.568Z,1485
2018-06-29T14:57:12.834Z,1525
2018-06-29T14:58:12.313Z,1530
2018-06-29T14:59:12.856Z,1475
2018-06-29T15:00:12.907Z,1430
2018-06-29T15:01:12.868Z,1420
2018-06-29T15:02:12.871Z,1430
2018-06-29T15:03:12.615Z,1430
2018-06-29T15:04:13.145Z,1420
2018-06-29T15:05:12.905Z,1435
2018-06-29T15:06:12.635Z,1485
2018-06-29T15:07:12.640Z,1420
2018-06-29T15:08:12.911Z,1310
2018-06-29T15:09:12.933Z,1135
2018-06-29T15:10:12.943Z,870
2018-06-29T15:11:12.667Z,525
2018-06-29T15:12:12.688Z,225
2018-06-29T15:13:12.421Z,160
2018-06-29T15:14:13.223Z,150
2018-06-29T15:15:12.963Z,145
2018-06-29T15:16:13.240Z,145
2018-06-29T15:17:13.246Z,145
2018-06-29T15:18:12.730Z,140
2018-06-29T15:19:12.713Z,140
2018-06-29T15:20:12.731Z,140
2018-06-29T15:21:12.725Z,140
2018-06-29T15:22:12.937Z,140
2018-06-29T15:23:12.730Z,140
2018-06-29T15:24:12.741Z,140
2018-06-29T15:25:13.069Z,140
2018-06-29T15:26:12.483Z,135
2018-06-29T15:27:12.751Z,135
2018-06-29T15:28:12.751Z,135
2018-06-29T15:29:12.494Z,135
2018-06-29T15:30:12.764Z,135
2018-06-29T15:31:13.212Z,130
2018-06-29T15:32:12.776Z,130
2018-06-29T15:33:13.298Z,130
2018-06-29T15:34:13.502Z,130
2018-06-29T15:35:12.786Z,130
2018-06-29T15:36:12.854Z,130
2018-06-29T15:37:13.087Z,130
2018-06-29T15:38:12.779Z,130
2018-06-29T15:39:13.039Z,125
2018-06-29T15:40:13.055Z,125
2018-06-29T15:41:12.781Z,125
2018-06-29T15:42:13.049Z,125
2018-06-29T15:43:13.053Z,125
2018-06-29T15:44:13.252Z,125
2018-06-29T15:45:12.797Z,120
2018-06-29T15:46:12.793Z,120
2018-06-29T15:47:12.797Z,120
2018-06-29T15:48:12.525Z,120
2018-06-29T15:49:13.318Z,120
2018-06-29T15:50:12.517Z,120
2018-06-29T15:51:12.522Z,120
2018-06-29T15:52:13.044Z,120
2018-06-29T15:53:12.781Z,120
2018-06-29T15:54:12.520Z,115
2018-06-29T15:55:13.189Z,115
2018-06-29T15:56:12.517Z,115
2018-06-29T15:57:12.258Z,115
2018-06-29T15:58:12.522Z,115
2018-06-29T15:59:12.251Z,115
2018-06-29T16:00:12.524Z,115
2018-06-29T16:01:13.321Z,115
2018-06-29T16:02:13.065Z,110
2018-06-29T16:03:12.784Z,110
2018-06-29T16:04:12.520Z,110
2018-06-29T16:05:13.048Z,110
2018-06-29T16:06:12.520Z,110
2018-06-29T16:07:12.780Z,110
2018-06-29T16:08:13.308Z,110
2018-06-29T16:09:13.300Z,105
2018-06-29T16:10:13.035Z,105
2018-06-29T16:11:13.038Z,105
2018-06-29T16:12:13.157Z,105
2018-06-29T16:13:13.033Z,105
2018-06-29T16:14:12.769Z,105
2018-06-29T16:15:13.301Z,105
2018-06-29T16:16:12.506Z,105
2018-06-29T16:17:12.504Z,105
2018-06-29T16:18:12.762Z,105
2018-06-29T16:19:12.768Z,105
2018-06-29T16:20:12.755Z,105
2018-06-29T16:21:13.021Z,105
2018-06-29T16:22:12.756Z,105
2018-06-29T16:23:12.491Z,105
2018-06-29T16:24:13.021Z,100
2018-06-29T16:25:13.279Z,105
2018-06-29T16:26:12.747Z,105
2018-06-29T16:27:13.012Z,100
2018-06-29T16:28:13.284Z,105
2018-06-29T16:29:12.767Z,100
2018-06-29T16:30:12.486Z,100
2018-06-29T16:31:12.746Z,100
2018-06-29T16:32:12.469Z,100
2018-06-29T16:33:12.735Z,100
2018-06-29T16:34:12.734Z,100
2018-06-29T16:35:12.727Z,100
2018-06-29T16:36:12.223Z,100
2018-06-29T16:37:12.992Z,100
2018-06-29T16:38:12.990Z,100
2018-06-29T16:39:12.459Z,100
2018-06-29T16:40:12.982Z,100
2018-06-29T16:41:12.719Z,100
2018-06-29T16:42:12.774Z,100
2018-06-29T16:43:12.711Z,100
2018-06-29T16:44:13.295Z,100
2018-06-29T16:45:12.440Z,100
2018-06-29T16:46:12.715Z,100
2018-06-29T16:47:12.708Z,100
2018-06-29T16:48:12.976Z,100
2018-06-29T16:49:12.702Z,100
2018-06-29T16:50:12.705Z,100
2018-06-29T16:51:12.181Z,100
2018-06-29T16:52:12.699Z,120
2018-06-29T16:53:12.699Z,270
2018-06-29T16:54:12.693Z,460
2018-06-29T16:55:13.226Z,455
2018-06-29T16:56:12.698Z,250
2018-06-29T16:57:12.973Z,160
2018-06-29T16:58:13.018Z,330
2018-06-29T16:59:12.434Z,515
2018-06-29T17:00:12.690Z,550
2018-06-29T17:01:12.691Z,365
2018-06-29T17:02:12.692Z,170
2018-06-29T17:03:13.218Z,100
2018-06-29T17:04:12.429Z,95
2018-06-29T17:05:12.948Z,95
2018-06-29T17:06:12.682Z,90
2018-06-29T17:07:12.952Z,90
2018-06-29T17:08:12.687Z,90
2018-06-29T17:09:12.414Z,90
2018-06-29T17:10:12.949Z,90
2018-06-29T17:11:12.952Z,95
2018-06-29T17:12:12.997Z,90
2018-06-29T17:13:12.421Z,145
2018-06-29T17:14:12.943Z,270
2018-06-29T17:15:12.945Z,195
2018-06-29T17:16:12.405Z,95
2018-06-29T17:17:12.669Z,85
2018-06-29T17:18:12.934Z,85
2018-06-29T17:19:12.668Z,85
2018-06-29T17:20:12.411Z,85
2018-06-29T17:21:13.197Z,80
2018-06-29T17:22:12.926Z,80
2018-06-29T17:23:13.240Z,80
2018-06-29T17:24:12.765Z,80
2018-06-29T17:25:12.800Z,80
2018-06-29T17:26:12.924Z,80
2018-06-29T17:27:12.389Z,80
2018-06-29T17:28:12.649Z,80
2018-06-29T17:29:12.989Z,80
2018-06-29T17:30:12.646Z,80
2018-06-29T17:31:12.376Z,80
2018-06-29T17:32:12.378Z,75
2018-06-29T17:33:12.906Z,75
2018-06-29T17:34:12.505Z,75
2018-06-29T17:35:12.632Z,75
2018-06-29T17:36:12.632Z,75
2018-06-29T17:37:13.205Z,75
2018-06-29T17:38:12.369Z,75
2018-06-29T17:39:12.358Z,75
2018-06-29T17:40:12.630Z,70
2018-06-29T17:41:12.633Z,70
2018-06-29T17:42:12.885Z,70
2018-06-29T17:43:12.617Z,70
2018-06-29T17:44:12.346Z,70
2018-06-29T17:45:12.343Z,70
2018-06-29T17:46:12.599Z,70
2018-06-29T17:47:13.194Z,70
2018-06-29T17:48:13.133Z,70
2018-06-29T17:49:12.863Z,70
2018-06-29T17:50:12.605Z,75
2018-06-29T17:51:12.610Z,70
2018-06-29T17:52:12.317Z,70
2018-06-29T17:53:12.852Z,70
2018-06-29T17:54:12.576Z,70
2018-06-29T17:55:12.554Z,70
2018-06-29T17:56:12.582Z,70
2018-06-29T17:57:12.566Z,70
2018-06-29T17:58:12.828Z,70
2018-06-29T17:59:12.303Z,70
2018-06-29T18:00:12.291Z,70
2018-06-29T18:01:12.824Z,65
2018-06-29T18:02:12.031Z,65
2018-06-29T18:03:12.809Z,65
2018-06-29T18:04:12.330Z,65
2018-06-29T18:05:12.388Z,65
2018-06-29T18:06:12.802Z,65
2018-06-29T18:07:12.598Z,65
2018-06-29T18:08:12.527Z,60
2018-06-29T18:09:12.796Z,60
2018-06-29T18:10:12.417Z,60